sensor_id;sensor_type;location;lat;lon;timestamp;P1;durP1;ratioP1;P2;durP2;ratioP2
41677;SDS011;27364;49.026;8.712;2022-09-09T02:04:01;6.47;;;1.98;;
41677;SDS011;27364;49.026;8.712;2022-09-09T02:06:41;8.43;;;1.88;;
41677;SDS011;27364;49.026;8.712;2022-09-09T02:09:10;11.18;;;1.70;;
41677;SDS011;27364;49.026;8.712;2022-09-09T02:11:37;6.78;;;1.60;;
41677;SDS011;27364;49.026;8.712;2022-09-09T02:14:08;9.18;;;1.67;;
41677;SDS011;27364;49.026;8.712;2022-09-09T02:16:44;5.68;;;1.63;;
41677;SDS011;27364;49.026;8.712;2022-09-09T02:19:16;7.32;;;1.60;;
41677;SDS011;27364;49.026;8.712;2022-09-09T02:21:53;5.18;;;1.55;;
41677;SDS011;27364;49.026;8.712;2022-09-09T02:24:21;4.03;;;1.40;;
41677;SDS011;27364;49.026;8.712;2022-09-09T02:26:48;3.53;;;1.40;;
41677;SDS011;27364;49.026;8.712;2022-09-09T02:29:25;5.30;;;1.40;;
41677;SDS011;27364;49.026;8.712;2022-09-09T02:32:13;5.22;;;1.60;;
41677;SDS011;27364;49.026;8.712;2022-09-09T02:34:46;4.35;;;1.50;;
41677;SDS011;27364;49.026;8.712;2022-09-09T02:37:15;4.95;;;1.48;;
41677;SDS011;27364;49.026;8.712;2022-09-09T02:39:44;5.03;;;1.58;;
41677;SDS011;27364;49.026;8.712;2022-09-09T02:42:10;5.82;;;1.55;;
41677;SDS011;27364;49.026;8.712;2022-09-09T02:44:35;7.47;;;1.63;;
41677;SDS011;27364;49.026;8.712;2022-09-09T02:50:12;7.47;;;1.60;;
41677;SDS011;27364;49.026;8.712;2022-09-09T02:52:40;5.55;;;1.52;;
41677;SDS011;27364;49.026;8.712;2022-09-09T02:55:23;4.93;;;1.55;;
41677;SDS011;27364;49.026;8.712;2022-09-09T02:57:56;4.85;;;1.52;;
41677;SDS011;27364;49.026;8.712;2022-09-09T03:00:27;5.30;;;1.58;;
41677;SDS011;27364;49.026;8.712;2022-09-09T03:02:53;7.10;;;1.50;;
41677;SDS011;27364;49.026;8.712;2022-09-09T03:05:19;3.75;;;1.60;;
41677;SDS011;27364;49.026;8.712;2022-09-09T03:07:45;4.43;;;1.50;;
41677;SDS011;27364;49.026;8.712;2022-09-09T03:10:11;4.82;;;1.40;;
41677;SDS011;27364;49.026;8.712;2022-09-09T03:12:37;3.78;;;1.42;;
41677;SDS011;27364;49.026;8.712;2022-09-09T03:15:03;3.58;;;1.30;;
41677;SDS011;27364;49.026;8.712;2022-09-09T03:17:30;3.75;;;1.30;;
41677;SDS011;27364;49.026;8.712;2022-09-09T03:19:56;5.57;;;1.42;;
41677;SDS011;27364;49.026;8.712;2022-09-09T03:22:23;3.83;;;1.30;;
41677;SDS011;27364;49.026;8.712;2022-09-09T03:24:50;4.72;;;1.50;;
41677;SDS011;27364;49.026;8.712;2022-09-09T03:27:16;5.28;;;1.60;;
41677;SDS011;27364;49.026;8.712;2022-09-09T03:29:42;5.45;;;1.70;;
41677;SDS011;27364;49.026;8.712;2022-09-09T03:32:08;3.45;;;1.60;;
41677;SDS011;27364;49.026;8.712;2022-09-09T03:34:35;7.18;;;1.95;;
41677;SDS011;27364;49.026;8.712;2022-09-09T03:37:04;4.05;;;1.70;;
41677;SDS011;27364;49.026;8.712;2022-09-09T03:39:30;5.20;;;1.70;;
41677;SDS011;27364;49.026;8.712;2022-09-09T03:41:56;4.97;;;1.67;;
41677;SDS011;27364;49.026;8.712;2022-09-09T03:44:22;5.47;;;1.70;;
41677;SDS011;27364;49.026;8.712;2022-09-09T03:46:47;5.88;;;1.52;;
41677;SDS011;27364;49.026;8.712;2022-09-09T03:49:13;5.47;;;1.75;;
41677;SDS011;27364;49.026;8.712;2022-09-09T03:51:38;4.68;;;1.70;;
41677;SDS011;27364;49.026;8.712;2022-09-09T03:54:05;3.85;;;1.60;;
41677;SDS011;27364;49.026;8.712;2022-09-09T03:56:33;5.35;;;1.50;;
41677;SDS011;27364;49.026;8.712;2022-09-09T03:58:59;4.13;;;1.42;;
41677;SDS011;27364;49.026;8.712;2022-09-09T04:01:24;6.13;;;1.60;;
41677;SDS011;27364;49.026;8.712;2022-09-09T04:03:50;4.88;;;1.40;;
41677;SDS011;27364;49.026;8.712;2022-09-09T04:06:17;4.35;;;1.55;;
41677;SDS011;27364;49.026;8.712;2022-09-09T04:08:44;3.42;;;1.25;;
41677;SDS011;27364;49.026;8.712;2022-09-09T04:11:14;4.28;;;1.35;;
41677;SDS011;27364;49.026;8.712;2022-09-09T04:13:40;4.85;;;1.60;;
41677;SDS011;27364;49.026;8.712;2022-09-09T04:16:06;5.28;;;1.67;;
41677;SDS011;27364;49.026;8.712;2022-09-09T04:18:33;4.47;;;1.40;;
41677;SDS011;27364;49.026;8.712;2022-09-09T04:20:59;3.63;;;1.40;;
41677;SDS011;27364;49.026;8.712;2022-09-09T04:23:26;5.95;;;1.52;;
41677;SDS011;27364;49.026;8.712;2022-09-09T04:25:57;5.45;;;1.60;;
41677;SDS011;27364;49.026;8.712;2022-09-09T04:28:24;6.35;;;1.80;;
41677;SDS011;27364;49.026;8.712;2022-09-09T04:30:52;3.70;;;1.52;;
41677;SDS011;27364;49.026;8.712;2022-09-09T04:33:17;5.22;;;1.75;;
41677;SDS011;27364;49.026;8.712;2022-09-09T04:35:47;3.05;;;1.40;;
41677;SDS011;27364;49.026;8.712;2022-09-09T04:38:15;4.38;;;1.35;;
41677;SDS011;27364;49.026;8.712;2022-09-09T04:40:42;5.25;;;1.50;;
41677;SDS011;27364;49.026;8.712;2022-09-09T04:43:08;6.95;;;1.50;;
41677;SDS011;27364;49.026;8.712;2022-09-09T04:45:35;4.03;;;1.30;;
41677;SDS011;27364;49.026;8.712;2022-09-09T04:48:02;3.03;;;1.38;;
41677;SDS011;27364;49.026;8.712;2022-09-09T04:50:27;4.20;;;1.50;;
41677;SDS011;27364;49.026;8.712;2022-09-09T04:52:53;3.30;;;1.60;;
41677;SDS011;27364;49.026;8.712;2022-09-09T04:55:19;4.88;;;1.60;;
41677;SDS011;27364;49.026;8.712;2022-09-09T04:57:45;3.15;;;1.40;;
41677;SDS011;27364;49.026;8.712;2022-09-09T05:00:11;6.13;;;1.95;;
41677;SDS011;27364;49.026;8.712;2022-09-09T05:02:38;4.18;;;1.55;;
41677;SDS011;27364;49.026;8.712;2022-09-09T05:05:04;5.65;;;1.80;;
41677;SDS011;27364;49.026;8.712;2022-09-09T05:07:30;2.92;;;1.50;;
41677;SDS011;27364;49.026;8.712;2022-09-09T05:09:56;4.95;;;1.65;;
41677;SDS011;27364;49.026;8.712;2022-09-09T05:12:22;3.70;;;1.55;;
41677;SDS011;27364;49.026;8.712;2022-09-09T05:14:50;6.20;;;1.55;;
41677;SDS011;27364;49.026;8.712;2022-09-09T05:17:16;4.43;;;1.58;;
41677;SDS011;27364;49.026;8.712;2022-09-09T05:19:42;4.68;;;1.80;;
41677;SDS011;27364;49.026;8.712;2022-09-09T05:22:08;5.80;;;1.90;;
41677;SDS011;27364;49.026;8.712;2022-09-09T05:24:33;4.18;;;1.65;;
41677;SDS011;27364;49.026;8.712;2022-09-09T05:26:59;4.03;;;1.60;;
41677;SDS011;27364;49.026;8.712;2022-09-09T05:29:27;3.75;;;1.73;;
41677;SDS011;27364;49.026;8.712;2022-09-09T05:31:53;5.10;;;1.63;;
41677;SDS011;27364;49.026;8.712;2022-09-09T05:34:18;4.15;;;1.38;;
41677;SDS011;27364;49.026;8.712;2022-09-09T05:36:45;4.50;;;1.60;;
41677;SDS011;27364;49.026;8.712;2022-09-09T05:39:11;7.68;;;1.50;;
41677;SDS011;27364;49.026;8.712;2022-09-09T05:41:37;4.93;;;1.55;;
41677;SDS011;27364;49.026;8.712;2022-09-09T05:44:03;3.47;;;1.40;;
41677;SDS011;27364;49.026;8.712;2022-09-09T05:46:29;4.85;;;1.60;;
41677;SDS011;27364;49.026;8.712;2022-09-09T05:48:55;3.22;;;1.40;;
41677;SDS011;27364;49.026;8.712;2022-09-09T05:51:21;3.55;;;1.48;;
41677;SDS011;27364;49.026;8.712;2022-09-09T05:53:49;4.18;;;1.63;;
41677;SDS011;27364;49.026;8.712;2022-09-09T05:56:20;8.00;;;1.75;;
41677;SDS011;27364;49.026;8.712;2022-09-09T05:58:47;3.05;;;1.40;;
41677;SDS011;27364;49.026;8.712;2022-09-09T06:03:44;3.85;;;1.40;;
41677;SDS011;27364;49.026;8.712;2022-09-09T06:06:13;3.38;;;1.50;;
41677;SDS011;27364;49.026;8.712;2022-09-09T06:08:42;4.18;;;1.60;;
41677;SDS011;27364;49.026;8.712;2022-09-09T06:11:16;4.78;;;1.70;;
41677;SDS011;27364;49.026;8.712;2022-09-09T06:13:47;4.53;;;1.40;;
41677;SDS011;27364;49.026;8.712;2022-09-09T06:16:17;5.78;;;1.50;;
41677;SDS011;27364;49.026;8.712;2022-09-09T06:18:43;4.60;;;1.50;;
41677;SDS011;27364;49.026;8.712;2022-09-09T06:21:16;4.25;;;1.63;;
41677;SDS011;27364;49.026;8.712;2022-09-09T06:23:44;4.47;;;1.60;;
41677;SDS011;27364;49.026;8.712;2022-09-09T06:26:11;5.18;;;1.75;;
41677;SDS011;27364;49.026;8.712;2022-09-09T06:28:40;5.22;;;1.73;;
41677;SDS011;27364;49.026;8.712;2022-09-09T06:33:35;4.28;;;1.48;;
41677;SDS011;27364;49.026;8.712;2022-09-09T06:36:06;7.65;;;2.05;;
41677;SDS011;27364;49.026;8.712;2022-09-09T06:38:35;5.85;;;1.45;;
41677;SDS011;27364;49.026;8.712;2022-09-09T06:41:00;5.78;;;1.63;;
41677;SDS011;27364;49.026;8.712;2022-09-09T06:43:27;4.47;;;1.55;;
41677;SDS011;27364;49.026;8.712;2022-09-09T06:46:00;7.28;;;1.73;;
41677;SDS011;27364;49.026;8.712;2022-09-09T06:48:30;6.22;;;1.83;;
41677;SDS011;27364;49.026;8.712;2022-09-09T06:51:09;6.65;;;1.90;;
41677;SDS011;27364;49.026;8.712;2022-09-09T06:53:38;5.10;;;2.03;;
41677;SDS011;27364;49.026;8.712;2022-09-09T06:58:48;6.47;;;2.22;;
41677;SDS011;27364;49.026;8.712;2022-09-09T07:01:18;7.03;;;2.03;;
41677;SDS011;27364;49.026;8.712;2022-09-09T07:03:46;5.78;;;1.85;;
41677;SDS011;27364;49.026;8.712;2022-09-09T07:06:17;6.10;;;1.73;;
41677;SDS011;27364;49.026;8.712;2022-09-09T07:08:48;7.80;;;1.60;;
41677;SDS011;27364;49.026;8.712;2022-09-09T07:11:15;4.15;;;1.48;;
41677;SDS011;27364;49.026;8.712;2022-09-09T07:13:41;5.63;;;1.80;;
41677;SDS011;27364;49.026;8.712;2022-09-09T07:16:08;5.88;;;1.70;;
41677;SDS011;27364;49.026;8.712;2022-09-09T07:18:35;7.75;;;2.05;;
41677;SDS011;27364;49.026;8.712;2022-09-09T07:21:02;6.78;;;1.77;;
41677;SDS011;27364;49.026;8.712;2022-09-09T07:23:28;6.73;;;1.77;;
41677;SDS011;27364;49.026;8.712;2022-09-09T07:25:54;6.28;;;1.70;;
41677;SDS011;27364;49.026;8.712;2022-09-09T07:28:20;7.22;;;1.70;;
41677;SDS011;27364;49.026;8.712;2022-09-09T07:30:54;5.85;;;1.55;;
41677;SDS011;27364;49.026;8.712;2022-09-09T07:33:22;7.07;;;1.85;;
41677;SDS011;27364;49.026;8.712;2022-09-09T07:35:49;4.90;;;1.55;;
41677;SDS011;27364;49.026;8.712;2022-09-09T07:38:15;4.63;;;1.60;;
41677;SDS011;27364;49.026;8.712;2022-09-09T07:40:40;5.88;;;1.90;;
41677;SDS011;27364;49.026;8.712;2022-09-09T07:43:06;8.07;;;1.85;;
41677;SDS011;27364;49.026;8.712;2022-09-09T07:45:33;6.70;;;1.80;;
41677;SDS011;27364;49.026;8.712;2022-09-09T07:47:59;6.60;;;1.80;;
41677;SDS011;27364;49.026;8.712;2022-09-09T07:50:25;9.30;;;2.05;;
41677;SDS011;27364;49.026;8.712;2022-09-09T07:52:51;7.15;;;1.70;;
41677;SDS011;27364;49.026;8.712;2022-09-09T07:55:18;6.43;;;2.03;;
41677;SDS011;27364;49.026;8.712;2022-09-09T07:57:50;8.57;;;1.80;;
41677;SDS011;27364;49.026;8.712;2022-09-09T08:00:16;7.93;;;1.92;;
41677;SDS011;27364;49.026;8.712;2022-09-09T08:02:43;6.68;;;1.80;;
41677;SDS011;27364;49.026;8.712;2022-09-09T08:05:09;6.20;;;1.70;;
41677;SDS011;27364;49.026;8.712;2022-09-09T08:07:35;8.57;;;2.10;;
41677;SDS011;27364;49.026;8.712;2022-09-09T08:10:00;7.88;;;2.33;;
41677;SDS011;27364;49.026;8.712;2022-09-09T08:12:27;4.57;;;1.70;;
41677;SDS011;27364;49.026;8.712;2022-09-09T08:14:52;9.52;;;1.65;;
41677;SDS011;27364;49.026;8.712;2022-09-09T08:17:19;6.38;;;1.70;;
41677;SDS011;27364;49.026;8.712;2022-09-09T08:19:44;6.53;;;1.73;;
41677;SDS011;27364;49.026;8.712;2022-09-09T08:22:10;5.93;;;2.20;;
41677;SDS011;27364;49.026;8.712;2022-09-09T08:24:36;8.35;;;1.80;;
41677;SDS011;27364;49.026;8.712;2022-09-09T08:27:01;8.63;;;2.13;;
41677;SDS011;27364;49.026;8.712;2022-09-09T08:29:27;8.40;;;1.50;;
41677;SDS011;27364;49.026;8.712;2022-09-09T08:31:56;4.68;;;1.45;;
41677;SDS011;27364;49.026;8.712;2022-09-09T08:34:23;5.50;;;1.80;;
41677;SDS011;27364;49.026;8.712;2022-09-09T08:36:52;6.97;;;1.98;;
41677;SDS011;27364;49.026;8.712;2022-09-09T08:39:19;5.63;;;1.70;;
41677;SDS011;27364;49.026;8.712;2022-09-09T08:44:57;4.47;;;1.70;;
41677;SDS011;27364;49.026;8.712;2022-09-09T08:48:05;6.45;;;2.08;;
41677;SDS011;27364;49.026;8.712;2022-09-09T08:50:58;6.43;;;1.70;;
41677;SDS011;27364;49.026;8.712;2022-09-09T08:53:27;6.97;;;1.50;;
41677;SDS011;27364;49.026;8.712;2022-09-09T08:56:02;7.28;;;1.80;;
41677;SDS011;27364;49.026;8.712;2022-09-09T08:58:34;5.25;;;1.60;;
41677;SDS011;27364;49.026;8.712;2022-09-09T09:09:26;4.82;;;1.40;;
41677;SDS011;27364;49.026;8.712;2022-09-09T09:11:57;4.80;;;1.30;;
41677;SDS011;27364;49.026;8.712;2022-09-09T09:14:26;6.70;;;1.60;;
41677;SDS011;27364;49.026;8.712;2022-09-09T09:16:59;5.43;;;1.70;;
41677;SDS011;27364;49.026;8.712;2022-09-09T09:19:32;5.80;;;1.88;;
41677;SDS011;27364;49.026;8.712;2022-09-09T09:24:56;4.88;;;1.70;;
41677;SDS011;27364;49.026;8.712;2022-09-09T09:31:01;5.72;;;1.90;;
41677;SDS011;27364;49.026;8.712;2022-09-09T09:36:06;8.48;;;2.15;;
41677;SDS011;27364;49.026;8.712;2022-09-09T09:38:35;7.53;;;2.10;;
41677;SDS011;27364;49.026;8.712;2022-09-09T09:41:01;8.05;;;1.95;;
41677;SDS011;27364;49.026;8.712;2022-09-09T09:43:32;6.63;;;1.80;;
41677;SDS011;27364;49.026;8.712;2022-09-09T09:45:59;8.27;;;2.22;;
41677;SDS011;27364;49.026;8.712;2022-09-09T09:48:28;7.25;;;1.80;;
41677;SDS011;27364;49.026;8.712;2022-09-09T09:50:54;5.60;;;1.73;;
41677;SDS011;27364;49.026;8.712;2022-09-09T09:53:32;4.80;;;1.60;;
41677;SDS011;27364;49.026;8.712;2022-09-09T09:58:31;4.35;;;1.60;;
41677;SDS011;27364;49.026;8.712;2022-09-09T10:00:59;9.70;;;2.00;;
41677;SDS011;27364;49.026;8.712;2022-09-09T10:03:33;6.83;;;1.70;;
41677;SDS011;27364;49.026;8.712;2022-09-09T10:06:05;5.72;;;1.83;;
41677;SDS011;27364;49.026;8.712;2022-09-09T10:08:33;4.70;;;1.73;;
41677;SDS011;27364;49.026;8.712;2022-09-09T10:16:48;8.30;;;1.90;;
41677;SDS011;27364;49.026;8.712;2022-09-09T10:19:32;6.45;;;1.67;;
41677;SDS011;27364;49.026;8.712;2022-09-09T10:22:02;6.00;;;1.75;;
41677;SDS011;27364;49.026;8.712;2022-09-09T10:24:58;5.85;;;1.75;;
41677;SDS011;27364;49.026;8.712;2022-09-09T10:39:03;5.43;;;1.50;;
41677;SDS011;27364;49.026;8.712;2022-09-09T10:41:15;4.65;;;1.70;;
41677;SDS011;27364;49.026;8.712;2022-09-09T10:44:12;6.32;;;1.70;;
41677;SDS011;27364;49.026;8.712;2022-09-09T10:49:38;5.90;;;1.52;;
41677;SDS011;27364;49.026;8.712;2022-09-09T10:52:16;9.20;;;1.73;;
41677;SDS011;27364;49.026;8.712;2022-09-09T10:55:02;5.90;;;1.67;;
41677;SDS011;27364;49.026;8.712;2022-09-09T10:57:39;5.60;;;1.55;;
41677;SDS011;27364;49.026;8.712;2022-09-09T11:00:23;4.78;;;1.50;;
41677;SDS011;27364;49.026;8.712;2022-09-09T11:03:04;5.53;;;1.60;;
41677;SDS011;27364;49.026;8.712;2022-09-09T11:08:09;5.00;;;2.05;;
41677;SDS011;27364;49.026;8.712;2022-09-09T11:11:04;6.18;;;1.50;;
41677;SDS011;27364;49.026;8.712;2022-09-09T11:22:25;5.68;;;1.30;;
41677;SDS011;27364;49.026;8.712;2022-09-09T11:24:56;4.70;;;1.50;;
41677;SDS011;27364;49.026;8.712;2022-09-09T11:30:16;4.28;;;1.60;;
41677;SDS011;27364;49.026;8.712;2022-09-09T11:41:10;4.47;;;1.70;;
41677;SDS011;27364;49.026;8.712;2022-09-09T11:43:40;6.47;;;1.60;;
41677;SDS011;27364;49.026;8.712;2022-09-09T11:46:06;4.68;;;1.30;;
41677;SDS011;27364;49.026;8.712;2022-09-09T11:53:46;4.90;;;1.30;;
41677;SDS011;27364;49.026;8.712;2022-09-09T11:56:22;5.18;;;1.98;;
41677;SDS011;27364;49.026;8.712;2022-09-09T11:59:20;4.25;;;1.20;;
41677;SDS011;27364;49.026;8.712;2022-09-09T12:02:11;2.63;;;1.13;;
41677;SDS011;27364;49.026;8.712;2022-09-09T12:04:46;3.08;;;1.10;;
41677;SDS011;27364;49.026;8.712;2022-09-09T12:12:44;3.72;;;1.30;;
41677;SDS011;27364;49.026;8.712;2022-09-09T12:17:46;2.58;;;1.10;;
41677;SDS011;27364;49.026;8.712;2022-09-09T12:20:17;3.33;;;1.27;;
41677;SDS011;27364;49.026;8.712;2022-09-09T12:28:37;3.20;;;1.08;;
41677;SDS011;27364;49.026;8.712;2022-09-09T12:34:48;6.80;;;1.25;;
41677;SDS011;27364;49.026;8.712;2022-09-09T12:37:21;3.80;;;1.42;;
41677;SDS011;27364;49.026;8.712;2022-09-09T12:42:25;7.88;;;1.40;;
41677;SDS011;27364;49.026;8.712;2022-09-09T12:45:02;3.35;;;1.25;;
41677;SDS011;27364;49.026;8.712;2022-09-09T12:47:33;7.72;;;1.20;;
41677;SDS011;27364;49.026;8.712;2022-09-09T12:50:28;4.82;;;1.52;;
41677;SDS011;27364;49.026;8.712;2022-09-09T12:52:56;3.40;;;1.40;;
41677;SDS011;27364;49.026;8.712;2022-09-09T12:55:35;4.13;;;1.48;;
41677;SDS011;27364;49.026;8.712;2022-09-09T12:58:03;3.85;;;1.45;;
41677;SDS011;27364;49.026;8.712;2022-09-09T13:00:31;3.65;;;1.40;;
41677;SDS011;27364;49.026;8.712;2022-09-09T13:02:59;3.88;;;1.50;;
41677;SDS011;27364;49.026;8.712;2022-09-09T13:05:34;5.00;;;1.50;;
41677;SDS011;27364;49.026;8.712;2022-09-09T13:08:02;7.15;;;1.75;;
41677;SDS011;27364;49.026;8.712;2022-09-09T13:12:58;4.55;;;1.17;;
41677;SDS011;27364;49.026;8.712;2022-09-09T13:15:28;5.35;;;1.60;;
41677;SDS011;27364;49.026;8.712;2022-09-09T13:17:55;5.75;;;1.60;;
41677;SDS011;27364;49.026;8.712;2022-09-09T13:20:28;5.00;;;1.38;;
41677;SDS011;27364;49.026;8.712;2022-09-09T13:22:55;2.80;;;1.00;;
41677;SDS011;27364;49.026;8.712;2022-09-09T13:25:26;3.50;;;1.10;;
41677;SDS011;27364;49.026;8.712;2022-09-09T13:28:00;3.33;;;0.90;;
41677;SDS011;27364;49.026;8.712;2022-09-09T13:30:34;3.65;;;0.98;;
41677;SDS011;27364;49.026;8.712;2022-09-09T13:38:18;4.22;;;1.27;;
41677;SDS011;27364;49.026;8.712;2022-09-09T13:40:54;4.82;;;1.10;;
41677;SDS011;27364;49.026;8.712;2022-09-09T13:43:27;3.70;;;1.20;;
41677;SDS011;27364;49.026;8.712;2022-09-09T13:46:21;3.40;;;1.25;;
41677;SDS011;27364;49.026;8.712;2022-09-09T13:51:37;7.72;;;1.77;;
41677;SDS011;27364;49.026;8.712;2022-09-09T13:54:10;4.22;;;1.50;;
41677;SDS011;27364;49.026;8.712;2022-09-09T13:56:37;3.60;;;1.33;;
41677;SDS011;27364;49.026;8.712;2022-09-09T13:59:05;4.10;;;1.30;;
41677;SDS011;27364;49.026;8.712;2022-09-09T14:01:34;6.70;;;1.25;;
41677;SDS011;27364;49.026;8.712;2022-09-09T14:04:00;5.95;;;1.45;;
41677;SDS011;27364;49.026;8.712;2022-09-09T14:06:25;3.40;;;1.27;;
41677;SDS011;27364;49.026;8.712;2022-09-09T14:08:52;3.67;;;1.40;;
41677;SDS011;27364;49.026;8.712;2022-09-09T14:11:19;4.15;;;1.50;;
41677;SDS011;27364;49.026;8.712;2022-09-09T14:13:46;5.80;;;1.50;;
41677;SDS011;27364;49.026;8.712;2022-09-09T14:16:12;6.30;;;1.48;;
41677;SDS011;27364;49.026;8.712;2022-09-09T14:18:38;3.28;;;1.40;;
41677;SDS011;27364;49.026;8.712;2022-09-09T14:21:04;5.55;;;1.52;;
41677;SDS011;27364;49.026;8.712;2022-09-09T14:23:30;3.58;;;1.38;;
41677;SDS011;27364;49.026;8.712;2022-09-09T14:25:55;4.85;;;1.63;;
41677;SDS011;27364;49.026;8.712;2022-09-09T14:28:21;4.57;;;1.42;;
41677;SDS011;27364;49.026;8.712;2022-09-09T14:30:46;3.83;;;1.25;;
41677;SDS011;27364;49.026;8.712;2022-09-09T14:33:13;3.47;;;1.23;;
41677;SDS011;27364;49.026;8.712;2022-09-09T14:35:40;4.82;;;1.63;;
41677;SDS011;27364;49.026;8.712;2022-09-09T14:38:07;5.57;;;2.33;;
41677;SDS011;27364;49.026;8.712;2022-09-09T14:40:34;4.27;;;1.60;;
41677;SDS011;27364;49.026;8.712;2022-09-09T14:43:01;3.88;;;1.38;;
41677;SDS011;27364;49.026;8.712;2022-09-09T14:45:27;3.10;;;1.10;;
41677;SDS011;27364;49.026;8.712;2022-09-09T14:47:53;2.20;;;0.93;;
41677;SDS011;27364;49.026;8.712;2022-09-09T14:50:19;5.47;;;1.20;;
41677;SDS011;27364;49.026;8.712;2022-09-09T14:52:46;4.38;;;1.15;;
41677;SDS011;27364;49.026;8.712;2022-09-09T14:55:12;3.90;;;1.20;;
41677;SDS011;27364;49.026;8.712;2022-09-09T14:57:38;2.78;;;1.20;;
41677;SDS011;27364;49.026;8.712;2022-09-09T15:00:05;4.88;;;1.48;;
41677;SDS011;27364;49.026;8.712;2022-09-09T15:02:32;3.90;;;1.42;;
41677;SDS011;27364;49.026;8.712;2022-09-09T15:04:58;8.07;;;1.60;;
41677;SDS011;27364;49.026;8.712;2022-09-09T15:07:24;6.07;;;1.60;;
41677;SDS011;27364;49.026;8.712;2022-09-09T15:09:50;6.03;;;1.60;;
41677;SDS011;27364;49.026;8.712;2022-09-09T15:12:17;4.18;;;1.45;;
41677;SDS011;27364;49.026;8.712;2022-09-09T15:14:46;8.60;;;1.90;;
41677;SDS011;27364;49.026;8.712;2022-09-09T15:17:13;5.72;;;1.55;;
41677;SDS011;27364;49.026;8.712;2022-09-09T15:19:38;8.10;;;1.60;;
41677;SDS011;27364;49.026;8.712;2022-09-09T15:22:04;6.57;;;1.83;;
41677;SDS011;27364;49.026;8.712;2022-09-09T15:24:31;5.72;;;1.50;;
41677;SDS011;27364;49.026;8.712;2022-09-09T15:26:57;2.90;;;1.30;;
41677;SDS011;27364;49.026;8.712;2022-09-09T15:29:23;4.15;;;1.45;;
41677;SDS011;27364;49.026;8.712;2022-09-09T15:31:49;4.85;;;1.40;;
41677;SDS011;27364;49.026;8.712;2022-09-09T15:34:15;5.15;;;1.33;;
41677;SDS011;27364;49.026;8.712;2022-09-09T15:36:41;3.13;;;1.20;;
41677;SDS011;27364;49.026;8.712;2022-09-09T15:39:09;4.35;;;1.20;;
41677;SDS011;27364;49.026;8.712;2022-09-09T15:41:41;4.90;;;1.52;;
41677;SDS011;27364;49.026;8.712;2022-09-09T15:44:07;4.88;;;1.27;;
41677;SDS011;27364;49.026;8.712;2022-09-09T15:46:44;2.35;;;1.10;;
41677;SDS011;27364;49.026;8.712;2022-09-09T15:49:22;5.50;;;1.23;;
41677;SDS011;27364;49.026;8.712;2022-09-09T15:51:59;5.00;;;1.52;;
41677;SDS011;27364;49.026;8.712;2022-09-09T15:54:33;6.85;;;1.50;;
41677;SDS011;27364;49.026;8.712;2022-09-09T15:57:03;2.55;;;1.05;;
41677;SDS011;27364;49.026;8.712;2022-09-09T15:59:30;4.00;;;1.27;;
41677;SDS011;27364;49.026;8.712;2022-09-09T16:01:56;3.95;;;1.40;;
41677;SDS011;27364;49.026;8.712;2022-09-09T16:04:23;5.53;;;1.60;;
41677;SDS011;27364;49.026;8.712;2022-09-09T16:06:54;3.90;;;1.10;;
41677;SDS011;27364;49.026;8.712;2022-09-09T16:09:28;3.92;;;1.30;;
41677;SDS011;27364;49.026;8.712;2022-09-09T16:11:58;7.05;;;1.55;;
41677;SDS011;27364;49.026;8.712;2022-09-09T16:14:25;3.65;;;1.17;;
41677;SDS011;27364;49.026;8.712;2022-09-09T16:16:52;3.80;;;1.30;;
41677;SDS011;27364;49.026;8.712;2022-09-09T16:19:18;3.58;;;1.30;;
41677;SDS011;27364;49.026;8.712;2022-09-09T16:21:45;4.25;;;1.30;;
41677;SDS011;27364;49.026;8.712;2022-09-09T16:24:13;2.25;;;1.00;;
41677;SDS011;27364;49.026;8.712;2022-09-09T16:26:45;2.25;;;0.98;;
41677;SDS011;27364;49.026;8.712;2022-09-09T16:29:13;3.47;;;1.13;;
41677;SDS011;27364;49.026;8.712;2022-09-09T16:31:40;2.47;;;0.95;;
41677;SDS011;27364;49.026;8.712;2022-09-09T16:34:06;2.65;;;1.00;;
41677;SDS011;27364;49.026;8.712;2022-09-09T16:36:34;4.00;;;1.20;;
41677;SDS011;27364;49.026;8.712;2022-09-09T16:39:02;3.33;;;1.00;;
41677;SDS011;27364;49.026;8.712;2022-09-09T16:41:30;2.50;;;1.10;;
41677;SDS011;27364;49.026;8.712;2022-09-09T16:43:57;1.90;;;1.00;;
41677;SDS011;27364;49.026;8.712;2022-09-09T16:46:28;4.28;;;0.90;;
41677;SDS011;27364;49.026;8.712;2022-09-09T16:48:58;3.35;;;0.98;;
41677;SDS011;27364;49.026;8.712;2022-09-09T16:51:26;3.17;;;0.90;;
41677;SDS011;27364;49.026;8.712;2022-09-09T16:53:57;2.88;;;1.00;;
41677;SDS011;27364;49.026;8.712;2022-09-09T16:56:26;1.70;;;0.82;;
41677;SDS011;27364;49.026;8.712;2022-09-09T16:58:54;3.17;;;1.05;;
41677;SDS011;27364;49.026;8.712;2022-09-09T17:01:22;2.30;;;0.90;;
41677;SDS011;27364;49.026;8.712;2022-09-09T17:03:59;2.83;;;1.13;;
41677;SDS011;27364;49.026;8.712;2022-09-09T17:08:59;2.80;;;1.10;;
41677;SDS011;27364;49.026;8.712;2022-09-09T17:11:26;2.83;;;1.30;;
41677;SDS011;27364;49.026;8.712;2022-09-09T17:13:53;3.30;;;1.20;;
41677;SDS011;27364;49.026;8.712;2022-09-09T17:16:20;2.47;;;0.93;;
41677;SDS011;27364;49.026;8.712;2022-09-09T17:18:48;4.75;;;1.05;;
41677;SDS011;27364;49.026;8.712;2022-09-09T17:21:16;2.13;;;0.85;;
41677;SDS011;27364;49.026;8.712;2022-09-09T17:23:43;3.65;;;1.13;;
41677;SDS011;27364;49.026;8.712;2022-09-09T17:26:11;2.08;;;1.00;;
41677;SDS011;27364;49.026;8.712;2022-09-09T17:28:39;3.67;;;1.10;;
41677;SDS011;27364;49.026;8.712;2022-09-09T17:31:06;3.00;;;1.10;;
41677;SDS011;27364;49.026;8.712;2022-09-09T17:33:34;4.07;;;1.10;;
41677;SDS011;27364;49.026;8.712;2022-09-09T17:36:02;4.53;;;1.38;;
41677;SDS011;27364;49.026;8.712;2022-09-09T17:38:33;2.35;;;1.13;;
41677;SDS011;27364;49.026;8.712;2022-09-09T17:41:06;5.35;;;1.30;;
41677;SDS011;27364;49.026;8.712;2022-09-09T17:43:34;5.03;;;1.30;;
41677;SDS011;27364;49.026;8.712;2022-09-09T17:46:07;3.22;;;1.10;;
41677;SDS011;27364;49.026;8.712;2022-09-09T17:49:11;3.83;;;1.52;;
41677;SDS011;27364;49.026;8.712;2022-09-09T17:51:38;4.43;;;1.40;;
41677;SDS011;27364;49.026;8.712;2022-09-09T17:56:37;2.58;;;1.30;;
41677;SDS011;27364;49.026;8.712;2022-09-09T17:59:04;4.53;;;1.50;;
41677;SDS011;27364;49.026;8.712;2022-09-09T18:04:00;5.43;;;2.20;;
41677;SDS011;27364;49.026;8.712;2022-09-09T18:06:29;8.00;;;1.80;;
41677;SDS011;27364;49.026;8.712;2022-09-09T18:08:59;4.25;;;2.30;;
41677;SDS011;27364;49.026;8.712;2022-09-09T18:11:28;6.18;;;2.03;;
41677;SDS011;27364;49.026;8.712;2022-09-09T18:13:59;4.68;;;1.95;;
41677;SDS011;27364;49.026;8.712;2022-09-09T18:16:27;4.70;;;1.90;;
41677;SDS011;27364;49.026;8.712;2022-09-09T18:18:55;5.45;;;2.08;;
41677;SDS011;27364;49.026;8.712;2022-09-09T18:21:22;3.70;;;1.75;;
41677;SDS011;27364;49.026;8.712;2022-09-09T18:23:50;3.22;;;1.42;;
41677;SDS011;27364;49.026;8.712;2022-09-09T18:26:18;2.90;;;1.30;;
41677;SDS011;27364;49.026;8.712;2022-09-09T18:28:50;3.13;;;1.33;;
41677;SDS011;27364;49.026;8.712;2022-09-09T18:31:22;3.33;;;1.40;;
41677;SDS011;27364;49.026;8.712;2022-09-09T18:36:18;4.57;;;1.42;;
41677;SDS011;27364;49.026;8.712;2022-09-09T18:38:45;4.05;;;1.40;;
41677;SDS011;27364;49.026;8.712;2022-09-09T18:41:15;3.60;;;1.40;;
41677;SDS011;27364;49.026;8.712;2022-09-09T18:43:48;4.03;;;1.30;;
41677;SDS011;27364;49.026;8.712;2022-09-09T18:46:16;4.40;;;1.50;;
41677;SDS011;27364;49.026;8.712;2022-09-09T18:48:43;3.50;;;1.48;;
41677;SDS011;27364;49.026;8.712;2022-09-09T18:51:10;3.90;;;1.40;;
41677;SDS011;27364;49.026;8.712;2022-09-09T18:53:37;3.55;;;1.33;;
41677;SDS011;27364;49.026;8.712;2022-09-09T18:56:09;2.28;;;1.25;;
41677;SDS011;27364;49.026;8.712;2022-09-09T18:58:37;3.42;;;1.40;;
41677;SDS011;27364;49.026;8.712;2022-09-09T19:01:04;3.72;;;1.45;;
41677;SDS011;27364;49.026;8.712;2022-09-09T19:03:34;5.57;;;1.58;;
41677;SDS011;27364;49.026;8.712;2022-09-09T19:06:04;3.22;;;1.38;;